sensor_id;sensor_type;location;lat;lon;timestamp;P1;durP1;ratioP1;P2;durP2;ratioP2
11203;SDS011;5659;49.408;11.116;2023-08-07T00:01:04;1.30;;;1.10;;
11203;SDS011;5659;49.408;11.116;2023-08-07T00:03:30;1.73;;;0.93;;
11203;SDS011;5659;49.408;11.116;2023-08-07T00:05:56;1.40;;;1.00;;
11203;SDS011;5659;49.408;11.116;2023-08-07T00:08:22;5.63;;;1.00;;
11203;SDS011;5659;49.408;11.116;2023-08-07T00:10:48;1.73;;;1.20;;
11203;SDS011;5659;49.408;11.116;2023-08-07T00:13:14;1.02;;;0.88;;
11203;SDS011;5659;49.408;11.116;2023-08-07T00:15:40;0.97;;;0.90;;
11203;SDS011;5659;49.408;11.116;2023-08-07T00:18:06;2.80;;;0.90;;
11203;SDS011;5659;49.408;11.116;2023-08-07T00:20:32;0.90;;;0.90;;
11203;SDS011;5659;49.408;11.116;2023-08-07T00:23:01;1.52;;;0.98;;
11203;SDS011;5659;49.408;11.116;2023-08-07T00:25:27;1.27;;;0.80;;
11203;SDS011;5659;49.408;11.116;2023-08-07T00:27:53;2.67;;;1.00;;
11203;SDS011;5659;49.408;11.116;2023-08-07T00:30:19;3.28;;;0.95;;
11203;SDS011;5659;49.408;11.116;2023-08-07T00:32:45;3.20;;;1.10;;
11203;SDS011;5659;49.408;11.116;2023-08-07T00:35:10;2.47;;;0.90;;
11203;SDS011;5659;49.408;11.116;2023-08-07T00:37:36;1.00;;;0.90;;
11203;SDS011;5659;49.408;11.116;2023-08-07T00:40:02;1.05;;;0.90;;
11203;SDS011;5659;49.408;11.116;2023-08-07T00:42:29;0.80;;;0.80;;
11203;SDS011;5659;49.408;11.116;2023-08-07T00:44:54;1.67;;;0.70;;
11203;SDS011;5659;49.408;11.116;2023-08-07T00:47:20;1.35;;;0.90;;
11203;SDS011;5659;49.408;11.116;2023-08-07T00:49:47;1.53;;;0.90;;
11203;SDS011;5659;49.408;11.116;2023-08-07T00:52:13;4.10;;;0.93;;
11203;SDS011;5659;49.408;11.116;2023-08-07T00:54:39;0.73;;;0.73;;
11203;SDS011;5659;49.408;11.116;2023-08-07T00:57:11;0.90;;;0.90;;
11203;SDS011;5659;49.408;11.116;2023-08-07T00:59:40;1.08;;;0.80;;
11203;SDS011;5659;49.408;11.116;2023-08-07T01:02:06;1.40;;;0.90;;
11203;SDS011;5659;49.408;11.116;2023-08-07T01:04:32;3.17;;;1.00;;
11203;SDS011;5659;49.408;11.116;2023-08-07T01:06:58;3.03;;;0.90;;
11203;SDS011;5659;49.408;11.116;2023-08-07T01:09:24;1.00;;;0.90;;
11203;SDS011;5659;49.408;11.116;2023-08-07T01:12:02;3.17;;;1.20;;
11203;SDS011;5659;49.408;11.116;2023-08-07T01:14:40;1.17;;;0.90;;
11203;SDS011;5659;49.408;11.116;2023-08-07T01:17:16;3.95;;;1.05;;
11203;SDS011;5659;49.408;11.116;2023-08-07T01:19:42;2.47;;;0.80;;
11203;SDS011;5659;49.408;11.116;2023-08-07T01:22:09;2.85;;;0.90;;
11203;SDS011;5659;49.408;11.116;2023-08-07T01:24:35;1.90;;;1.17;;
11203;SDS011;5659;49.408;11.116;2023-08-07T01:27:05;1.85;;;1.10;;
11203;SDS011;5659;49.408;11.116;2023-08-07T01:29:39;1.37;;;1.03;;
11203;SDS011;5659;49.408;11.116;2023-08-07T01:32:07;1.67;;;1.00;;
11203;SDS011;5659;49.408;11.116;2023-08-07T01:34:34;2.63;;;1.10;;
11203;SDS011;5659;49.408;11.116;2023-08-07T01:37:01;0.80;;;0.80;;
11203;SDS011;5659;49.408;11.116;2023-08-07T01:39:27;0.90;;;0.80;;
11203;SDS011;5659;49.408;11.116;2023-08-07T01:41:53;3.03;;;1.10;;
11203;SDS011;5659;49.408;11.116;2023-08-07T01:44:20;1.10;;;1.00;;
11203;SDS011;5659;49.408;11.116;2023-08-07T01:46:46;3.83;;;1.10;;
11203;SDS011;5659;49.408;11.116;2023-08-07T01:49:12;1.33;;;0.90;;
11203;SDS011;5659;49.408;11.116;2023-08-07T01:51:38;1.20;;;0.80;;
11203;SDS011;5659;49.408;11.116;2023-08-07T01:54:04;1.23;;;0.90;;
11203;SDS011;5659;49.408;11.116;2023-08-07T01:56:30;4.37;;;1.20;;
11203;SDS011;5659;49.408;11.116;2023-08-07T01:58:56;2.33;;;1.13;;
11203;SDS011;5659;49.408;11.116;2023-08-07T02:01:22;2.80;;;1.20;;
11203;SDS011;5659;49.408;11.116;2023-08-07T02:03:48;2.87;;;1.30;;
11203;SDS011;5659;49.408;11.116;2023-08-07T02:08:50;1.43;;;1.20;;
11203;SDS011;5659;49.408;11.116;2023-08-07T02:11:16;2.73;;;1.37;;
11203;SDS011;5659;49.408;11.116;2023-08-07T02:13:42;1.50;;;1.10;;
11203;SDS011;5659;49.408;11.116;2023-08-07T02:16:08;1.10;;;1.00;;
11203;SDS011;5659;49.408;11.116;2023-08-07T02:18:34;2.00;;;1.33;;
11203;SDS011;5659;49.408;11.116;2023-08-07T02:21:00;2.20;;;1.40;;
11203;SDS011;5659;49.408;11.116;2023-08-07T02:23:26;5.27;;;1.40;;
11203;SDS011;5659;49.408;11.116;2023-08-07T02:25:53;2.13;;;1.20;;
11203;SDS011;5659;49.408;11.116;2023-08-07T02:28:19;6.00;;;1.30;;
11203;SDS011;5659;49.408;11.116;2023-08-07T02:30:46;1.77;;;1.33;;
11203;SDS011;5659;49.408;11.116;2023-08-07T02:33:13;2.93;;;1.83;;
11203;SDS011;5659;49.408;11.116;2023-08-07T02:35:39;3.80;;;1.35;;
11203;SDS011;5659;49.408;11.116;2023-08-07T02:38:05;2.33;;;1.40;;
11203;SDS011;5659;49.408;11.116;2023-08-07T02:40:31;3.67;;;1.50;;
11203;SDS011;5659;49.408;11.116;2023-08-07T02:42:57;2.53;;;1.40;;
11203;SDS011;5659;49.408;11.116;2023-08-07T02:45:23;2.27;;;1.20;;
11203;SDS011;5659;49.408;11.116;2023-08-07T02:47:49;3.87;;;1.40;;
11203;SDS011;5659;49.408;11.116;2023-08-07T02:50:15;3.87;;;1.50;;
11203;SDS011;5659;49.408;11.116;2023-08-07T02:52:41;3.03;;;1.50;;
11203;SDS011;5659;49.408;11.116;2023-08-07T02:55:07;2.83;;;1.50;;
11203;SDS011;5659;49.408;11.116;2023-08-07T02:57:33;4.40;;;1.57;;
11203;SDS011;5659;49.408;11.116;2023-08-07T02:59:59;2.93;;;1.60;;
11203;SDS011;5659;49.408;11.116;2023-08-07T03:02:25;6.43;;;1.83;;
11203;SDS011;5659;49.408;11.116;2023-08-07T03:04:51;3.13;;;1.60;;
11203;SDS011;5659;49.408;11.116;2023-08-07T03:07:17;1.80;;;1.40;;
11203;SDS011;5659;49.408;11.116;2023-08-07T03:09:46;3.30;;;1.50;;
11203;SDS011;5659;49.408;11.116;2023-08-07T03:12:12;3.40;;;1.57;;
11203;SDS011;5659;49.408;11.116;2023-08-07T03:14:38;4.40;;;1.80;;
11203;SDS011;5659;49.408;11.116;2023-08-07T03:17:04;3.40;;;1.50;;
11203;SDS011;5659;49.408;11.116;2023-08-07T03:19:30;4.90;;;1.70;;
11203;SDS011;5659;49.408;11.116;2023-08-07T03:21:56;4.43;;;1.93;;
11203;SDS011;5659;49.408;11.116;2023-08-07T03:24:22;5.20;;;2.00;;
11203;SDS011;5659;49.408;11.116;2023-08-07T03:26:48;6.73;;;1.87;;
11203;SDS011;5659;49.408;11.116;2023-08-07T03:29:14;2.30;;;1.80;;
11203;SDS011;5659;49.408;11.116;2023-08-07T03:31:40;2.47;;;1.80;;
11203;SDS011;5659;49.408;11.116;2023-08-07T03:34:06;4.30;;;1.53;;
11203;SDS011;5659;49.408;11.116;2023-08-07T03:36:32;4.83;;;1.93;;
11203;SDS011;5659;49.408;11.116;2023-08-07T03:38:58;7.47;;;2.10;;
11203;SDS011;5659;49.408;11.116;2023-08-07T03:41:24;6.03;;;2.07;;
11203;SDS011;5659;49.408;11.116;2023-08-07T03:43:50;4.97;;;1.80;;
11203;SDS011;5659;49.408;11.116;2023-08-07T03:46:16;5.87;;;2.00;;
11203;SDS011;5659;49.408;11.116;2023-08-07T03:48:42;3.37;;;2.00;;
11203;SDS011;5659;49.408;11.116;2023-08-07T03:51:08;5.90;;;2.07;;
11203;SDS011;5659;49.408;11.116;2023-08-07T03:53:34;5.70;;;2.30;;
11203;SDS011;5659;49.408;11.116;2023-08-07T03:56:00;4.27;;;2.30;;
11203;SDS011;5659;49.408;11.116;2023-08-07T03:58:26;4.47;;;2.40;;
11203;SDS011;5659;49.408;11.116;2023-08-07T04:00:52;4.00;;;2.13;;
11203;SDS011;5659;49.408;11.116;2023-08-07T04:03:19;8.40;;;2.37;;
11203;SDS011;5659;49.408;11.116;2023-08-07T04:05:46;4.10;;;2.33;;
11203;SDS011;5659;49.408;11.116;2023-08-07T04:08:13;5.00;;;2.33;;
11203;SDS011;5659;49.408;11.116;2023-08-07T04:10:39;3.47;;;2.43;;
11203;SDS011;5659;49.408;11.116;2023-08-07T04:13:05;5.57;;;2.60;;
11203;SDS011;5659;49.408;11.116;2023-08-07T04:15:31;5.73;;;2.93;;
11203;SDS011;5659;49.408;11.116;2023-08-07T04:17:57;8.27;;;2.63;;
11203;SDS011;5659;49.408;11.116;2023-08-07T04:20:23;4.67;;;2.43;;
11203;SDS011;5659;49.408;11.116;2023-08-07T04:22:49;5.70;;;2.30;;
11203;SDS011;5659;49.408;11.116;2023-08-07T04:25:15;6.63;;;2.47;;
11203;SDS011;5659;49.408;11.116;2023-08-07T04:27:41;7.17;;;2.53;;
11203;SDS011;5659;49.408;11.116;2023-08-07T04:30:07;6.53;;;2.60;;
11203;SDS011;5659;49.408;11.116;2023-08-07T04:32:33;7.17;;;2.70;;
11203;SDS011;5659;49.408;11.116;2023-08-07T04:34:59;5.13;;;2.60;;
11203;SDS011;5659;49.408;11.116;2023-08-07T04:37:25;7.70;;;2.70;;
11203;SDS011;5659;49.408;11.116;2023-08-07T04:39:51;6.87;;;2.90;;
11203;SDS011;5659;49.408;11.116;2023-08-07T04:42:17;3.67;;;2.40;;
11203;SDS011;5659;49.408;11.116;2023-08-07T04:44:43;6.43;;;2.63;;
11203;SDS011;5659;49.408;11.116;2023-08-07T04:47:09;6.53;;;2.83;;
11203;SDS011;5659;49.408;11.116;2023-08-07T04:49:35;6.30;;;2.80;;
11203;SDS011;5659;49.408;11.116;2023-08-07T04:52:01;4.97;;;2.80;;
11203;SDS011;5659;49.408;11.116;2023-08-07T04:54:27;9.13;;;2.90;;
11203;SDS011;5659;49.408;11.116;2023-08-07T04:56:53;5.60;;;2.87;;
11203;SDS011;5659;49.408;11.116;2023-08-07T04:59:19;6.30;;;3.03;;
11203;SDS011;5659;49.408;11.116;2023-08-07T05:01:45;9.67;;;2.83;;
11203;SDS011;5659;49.408;11.116;2023-08-07T05:04:11;6.30;;;3.00;;
11203;SDS011;5659;49.408;11.116;2023-08-07T05:06:37;7.63;;;3.20;;
11203;SDS011;5659;49.408;11.116;2023-08-07T05:09:03;5.83;;;3.40;;
11203;SDS011;5659;49.408;11.116;2023-08-07T05:11:29;12.93;;;3.37;;
11203;SDS011;5659;49.408;11.116;2023-08-07T05:13:55;8.73;;;3.23;;
11203;SDS011;5659;49.408;11.116;2023-08-07T05:16:20;13.97;;;3.57;;
11203;SDS011;5659;49.408;11.116;2023-08-07T05:18:48;7.90;;;3.40;;
11203;SDS011;5659;49.408;11.116;2023-08-07T05:21:14;9.67;;;4.17;;
11203;SDS011;5659;49.408;11.116;2023-08-07T05:23:40;6.63;;;3.20;;
11203;SDS011;5659;49.408;11.116;2023-08-07T05:26:06;6.83;;;3.43;;
11203;SDS011;5659;49.408;11.116;2023-08-07T05:28:32;7.03;;;3.53;;
11203;SDS011;5659;49.408;11.116;2023-08-07T05:30:58;9.13;;;3.80;;
11203;SDS011;5659;49.408;11.116;2023-08-07T05:33:24;8.60;;;3.47;;
11203;SDS011;5659;49.408;11.116;2023-08-07T05:35:50;9.47;;;3.93;;
11203;SDS011;5659;49.408;11.116;2023-08-07T05:38:17;7.73;;;3.57;;
11203;SDS011;5659;49.408;11.116;2023-08-07T05:40:43;7.67;;;3.63;;
11203;SDS011;5659;49.408;11.116;2023-08-07T05:43:09;9.43;;;3.50;;
11203;SDS011;5659;49.408;11.116;2023-08-07T05:45:37;6.37;;;3.47;;
11203;SDS011;5659;49.408;11.116;2023-08-07T05:48:03;7.90;;;3.37;;
11203;SDS011;5659;49.408;11.116;2023-08-07T05:50:29;11.90;;;3.70;;
11203;SDS011;5659;49.408;11.116;2023-08-07T05:52:55;7.53;;;3.90;;
11203;SDS011;5659;49.408;11.116;2023-08-07T05:55:21;9.43;;;3.87;;
11203;SDS011;5659;49.408;11.116;2023-08-07T05:57:47;4.67;;;3.40;;
11203;SDS011;5659;49.408;11.116;2023-08-07T06:00:15;6.90;;;3.50;;
11203;SDS011;5659;49.408;11.116;2023-08-07T06:02:43;8.17;;;3.70;;
11203;SDS011;5659;49.408;11.116;2023-08-07T06:05:09;8.33;;;3.43;;
11203;SDS011;5659;49.408;11.116;2023-08-07T06:07:37;6.67;;;4.10;;
11203;SDS011;5659;49.408;11.116;2023-08-07T06:10:04;6.07;;;3.23;;
11203;SDS011;5659;49.408;11.116;2023-08-07T06:12:30;5.60;;;3.37;;
11203;SDS011;5659;49.408;11.116;2023-08-07T06:14:56;7.43;;;3.40;;
11203;SDS011;5659;49.408;11.116;2023-08-07T06:17:22;8.57;;;3.10;;
11203;SDS011;5659;49.408;11.116;2023-08-07T06:19:48;7.50;;;3.47;;
11203;SDS011;5659;49.408;11.116;2023-08-07T06:22:14;9.03;;;3.60;;
11203;SDS011;5659;49.408;11.116;2023-08-07T06:24:39;9.53;;;3.47;;
11203;SDS011;5659;49.408;11.116;2023-08-07T06:27:06;6.77;;;3.10;;
11203;SDS011;5659;49.408;11.116;2023-08-07T06:29:31;7.47;;;3.17;;
11203;SDS011;5659;49.408;11.116;2023-08-07T06:31:57;6.17;;;3.00;;
11203;SDS011;5659;49.408;11.116;2023-08-07T06:34:23;6.03;;;3.57;;
11203;SDS011;5659;49.408;11.116;2023-08-07T06:36:49;6.23;;;3.20;;
11203;SDS011;5659;49.408;11.116;2023-08-07T06:39:15;5.37;;;2.87;;
11203;SDS011;5659;49.408;11.116;2023-08-07T06:41:41;5.33;;;3.10;;
11203;SDS011;5659;49.408;11.116;2023-08-07T06:44:07;7.23;;;3.33;;
11203;SDS011;5659;49.408;11.116;2023-08-07T06:46:33;7.03;;;3.53;;
11203;SDS011;5659;49.408;11.116;2023-08-07T06:48:59;4.67;;;2.93;;
11203;SDS011;5659;49.408;11.116;2023-08-07T06:51:25;5.43;;;3.10;;
11203;SDS011;5659;49.408;11.116;2023-08-07T06:53:51;17.17;;;3.27;;
11203;SDS011;5659;49.408;11.116;2023-08-07T06:56:17;8.23;;;3.30;;
11203;SDS011;5659;49.408;11.116;2023-08-07T06:58:43;11.77;;;3.47;;
11203;SDS011;5659;49.408;11.116;2023-08-07T07:01:09;6.70;;;3.10;;
11203;SDS011;5659;49.408;11.116;2023-08-07T07:03:36;6.40;;;3.30;;
11203;SDS011;5659;49.408;11.116;2023-08-07T07:06:02;7.23;;;3.30;;
11203;SDS011;5659;49.408;11.116;2023-08-07T07:08:28;5.93;;;3.50;;
11203;SDS011;5659;49.408;11.116;2023-08-07T07:10:53;8.93;;;2.90;;
11203;SDS011;5659;49.408;11.116;2023-08-07T07:13:19;9.80;;;4.03;;
11203;SDS011;5659;49.408;11.116;2023-08-07T07:15:45;8.53;;;3.30;;
11203;SDS011;5659;49.408;11.116;2023-08-07T07:18:11;4.47;;;3.23;;
11203;SDS011;5659;49.408;11.116;2023-08-07T07:20:37;12.53;;;4.00;;
11203;SDS011;5659;49.408;11.116;2023-08-07T07:23:03;9.33;;;3.47;;
11203;SDS011;5659;49.408;11.116;2023-08-07T07:25:30;10.67;;;3.57;;
11203;SDS011;5659;49.408;11.116;2023-08-07T07:27:56;11.47;;;3.80;;
11203;SDS011;5659;49.408;11.116;2023-08-07T07:30:22;9.03;;;3.17;;
11203;SDS011;5659;49.408;11.116;2023-08-07T07:32:49;7.70;;;3.40;;
11203;SDS011;5659;49.408;11.116;2023-08-07T07:35:16;5.83;;;3.30;;
11203;SDS011;5659;49.408;11.116;2023-08-07T07:37:42;6.23;;;3.70;;
11203;SDS011;5659;49.408;11.116;2023-08-07T07:40:08;8.83;;;3.53;;
11203;SDS011;5659;49.408;11.116;2023-08-07T07:42:34;6.77;;;3.57;;
11203;SDS011;5659;49.408;11.116;2023-08-07T07:45:00;5.57;;;3.27;;
11203;SDS011;5659;49.408;11.116;2023-08-07T07:47:26;6.27;;;3.90;;
11203;SDS011;5659;49.408;11.116;2023-08-07T07:50:04;9.70;;;3.20;;
11203;SDS011;5659;49.408;11.116;2023-08-07T07:52:30;7.80;;;3.50;;
11203;SDS011;5659;49.408;11.116;2023-08-07T07:54:56;9.47;;;3.80;;
11203;SDS011;5659;49.408;11.116;2023-08-07T07:57:22;5.77;;;3.60;;
11203;SDS011;5659;49.408;11.116;2023-08-07T07:59:48;7.47;;;3.43;;
11203;SDS011;5659;49.408;11.116;2023-08-07T08:02:14;9.97;;;3.90;;
11203;SDS011;5659;49.408;11.116;2023-08-07T08:04:41;8.37;;;4.43;;
11203;SDS011;5659;49.408;11.116;2023-08-07T08:07:07;11.27;;;3.70;;
11203;SDS011;5659;49.408;11.116;2023-08-07T08:09:33;9.67;;;3.60;;
11203;SDS011;5659;49.408;11.116;2023-08-07T08:11:59;7.28;;;3.53;;
11203;SDS011;5659;49.408;11.116;2023-08-07T08:14:25;9.03;;;3.33;;
11203;SDS011;5659;49.408;11.116;2023-08-07T08:16:51;8.57;;;3.60;;
11203;SDS011;5659;49.408;11.116;2023-08-07T08:19:17;5.63;;;3.60;;
11203;SDS011;5659;49.408;11.116;2023-08-07T08:21:43;9.48;;;3.80;;
11203;SDS011;5659;49.408;11.116;2023-08-07T08:24:09;7.97;;;3.80;;
11203;SDS011;5659;49.408;11.116;2023-08-07T08:26:35;9.27;;;3.87;;
11203;SDS011;5659;49.408;11.116;2023-08-07T08:29:01;6.60;;;3.53;;
11203;SDS011;5659;49.408;11.116;2023-08-07T08:31:27;8.43;;;3.95;;
11203;SDS011;5659;49.408;11.116;2023-08-07T08:33:53;12.93;;;4.10;;
11203;SDS011;5659;49.408;11.116;2023-08-07T08:36:19;8.93;;;3.70;;
11203;SDS011;5659;49.408;11.116;2023-08-07T08:38:45;7.20;;;4.10;;
11203;SDS011;5659;49.408;11.116;2023-08-07T08:41:13;8.30;;;3.40;;
11203;SDS011;5659;49.408;11.116;2023-08-07T08:43:39;7.93;;;4.03;;
11203;SDS011;5659;49.408;11.116;2023-08-07T08:46:06;9.45;;;3.90;;
11203;SDS011;5659;49.408;11.116;2023-08-07T08:48:36;6.33;;;3.70;;
11203;SDS011;5659;49.408;11.116;2023-08-07T08:51:04;10.15;;;3.60;;
11203;SDS011;5659;49.408;11.116;2023-08-07T08:53:31;8.43;;;3.45;;
11203;SDS011;5659;49.408;11.116;2023-08-07T08:55:58;6.30;;;3.50;;
11203;SDS011;5659;49.408;11.116;2023-08-07T08:58:24;5.33;;;3.50;;
11203;SDS011;5659;49.408;11.116;2023-08-07T09:00:50;7.03;;;3.67;;
11203;SDS011;5659;49.408;11.116;2023-08-07T09:03:18;7.03;;;3.57;;
11203;SDS011;5659;49.408;11.116;2023-08-07T09:05:44;5.80;;;3.30;;
11203;SDS011;5659;49.408;11.116;2023-08-07T09:08:11;11.00;;;3.60;;
11203;SDS011;5659;49.408;11.116;2023-08-07T09:10:37;7.77;;;3.60;;
11203;SDS011;5659;49.408;11.116;2023-08-07T09:13:04;9.05;;;3.75;;
11203;SDS011;5659;49.408;11.116;2023-08-07T09:15:31;5.73;;;3.20;;
11203;SDS011;5659;49.408;11.116;2023-08-07T09:17:57;7.37;;;3.60;;
11203;SDS011;5659;49.408;11.116;2023-08-07T09:20:24;8.47;;;3.50;;
11203;SDS011;5659;49.408;11.116;2023-08-07T09:22:50;6.40;;;3.17;;
11203;SDS011;5659;49.408;11.116;2023-08-07T09:25:26;6.70;;;3.17;;
11203;SDS011;5659;49.408;11.116;2023-08-07T09:27:54;5.20;;;3.03;;
11203;SDS011;5659;49.408;11.116;2023-08-07T09:30:20;8.13;;;3.23;;
11203;SDS011;5659;49.408;11.116;2023-08-07T09:32:49;7.30;;;3.60;;
11203;SDS011;5659;49.408;11.116;2023-08-07T09:35:15;7.75;;;3.65;;
11203;SDS011;5659;49.408;11.116;2023-08-07T09:37:46;6.43;;;3.23;;
11203;SDS011;5659;49.408;11.116;2023-08-07T09:40:12;4.53;;;3.10;;
11203;SDS011;5659;49.408;11.116;2023-08-07T09:42:40;5.97;;;2.80;;
11203;SDS011;5659;49.408;11.116;2023-08-07T09:45:22;5.38;;;2.38;;
11203;SDS011;5659;49.408;11.116;2023-08-07T09:48:04;6.03;;;2.35;;
11203;SDS011;5659;49.408;11.116;2023-08-07T09:50:33;4.95;;;2.58;;
11203;SDS011;5659;49.408;11.116;2023-08-07T09:53:00;7.00;;;2.83;;
11203;SDS011;5659;49.408;11.116;2023-08-07T09:55:26;5.72;;;2.72;;
11203;SDS011;5659;49.408;11.116;2023-08-07T09:57:53;3.58;;;2.30;;
11203;SDS011;5659;49.408;11.116;2023-08-07T10:00:19;4.28;;;2.80;;
11203;SDS011;5659;49.408;11.116;2023-08-07T10:02:48;4.65;;;2.50;;
11203;SDS011;5659;49.408;11.116;2023-08-07T10:05:15;3.33;;;2.70;;
11203;SDS011;5659;49.408;11.116;2023-08-07T10:07:41;4.22;;;2.25;;
11203;SDS011;5659;49.408;11.116;2023-08-07T10:10:08;6.40;;;2.75;;
11203;SDS011;5659;49.408;11.116;2023-08-07T10:12:34;3.17;;;2.40;;
11203;SDS011;5659;49.408;11.116;2023-08-07T10:15:01;5.00;;;2.65;;
11203;SDS011;5659;49.408;11.116;2023-08-07T10:17:27;4.60;;;2.50;;
11203;SDS011;5659;49.408;11.116;2023-08-07T10:19:54;4.55;;;2.35;;
11203;SDS011;5659;49.408;11.116;2023-08-07T10:22:20;3.70;;;2.50;;
11203;SDS011;5659;49.408;11.116;2023-08-07T10:24:48;6.40;;;2.30;;
11203;SDS011;5659;49.408;11.116;2023-08-07T10:27:25;3.45;;;2.50;;
11203;SDS011;5659;49.408;11.116;2023-08-07T10:30:07;7.22;;;2.90;;
11203;SDS011;5659;49.408;11.116;2023-08-07T10:32:35;4.88;;;2.40;;
11203;SDS011;5659;49.408;11.116;2023-08-07T10:35:02;4.35;;;2.53;;
11203;SDS011;5659;49.408;11.116;2023-08-07T10:37:43;4.20;;;2.40;;
11203;SDS011;5659;49.408;11.116;2023-08-07T10:40:16;5.30;;;2.53;;
11203;SDS011;5659;49.408;11.116;2023-08-07T10:42:55;3.60;;;2.25;;
11203;SDS011;5659;49.408;11.116;2023-08-07T10:45:25;5.55;;;2.70;;
11203;SDS011;5659;49.408;11.116;2023-08-07T10:50:33;8.83;;;2.83;;
11203;SDS011;5659;49.408;11.116;2023-08-07T10:52:59;4.90;;;2.60;;
11203;SDS011;5659;49.408;11.116;2023-08-07T10:55:25;7.27;;;2.30;;
11203;SDS011;5659;49.408;11.116;2023-08-07T10:57:52;7.00;;;2.30;;
11203;SDS011;5659;49.408;11.116;2023-08-07T11:00:21;3.58;;;2.35;;
11203;SDS011;5659;49.408;11.116;2023-08-07T11:02:47;4.68;;;2.38;;
11203;SDS011;5659;49.408;11.116;2023-08-07T11:05:14;5.90;;;2.47;;
11203;SDS011;5659;49.408;11.116;2023-08-07T11:07:40;7.10;;;2.60;;
11203;SDS011;5659;49.408;11.116;2023-08-07T11:10:06;5.15;;;2.47;;
11203;SDS011;5659;49.408;11.116;2023-08-07T11:12:33;4.57;;;2.33;;
11203;SDS011;5659;49.408;11.116;2023-08-07T11:14:59;6.82;;;2.33;;
11203;SDS011;5659;49.408;11.116;2023-08-07T11:17:25;2.60;;;2.38;;
11203;SDS011;5659;49.408;11.116;2023-08-07T11:19:51;7.15;;;2.00;;
11203;SDS011;5659;49.408;11.116;2023-08-07T11:22:18;3.40;;;1.95;;
11203;SDS011;5659;49.408;11.116;2023-08-07T11:24:45;4.43;;;2.28;;
11203;SDS011;5659;49.408;11.116;2023-08-07T11:27:11;6.40;;;2.50;;
11203;SDS011;5659;49.408;11.116;2023-08-07T11:29:37;7.38;;;2.50;;
11203;SDS011;5659;49.408;11.116;2023-08-07T11:32:03;5.80;;;2.17;;
11203;SDS011;5659;49.408;11.116;2023-08-07T11:34:30;7.78;;;2.30;;
11203;SDS011;5659;49.408;11.116;2023-08-07T11:36:56;3.90;;;2.20;;
11203;SDS011;5659;49.408;11.116;2023-08-07T11:39:23;5.10;;;2.47;;
11203;SDS011;5659;49.408;11.116;2023-08-07T11:41:50;6.13;;;2.63;;
11203;SDS011;5659;49.408;11.116;2023-08-07T11:44:17;3.78;;;2.38;;
11203;SDS011;5659;49.408;11.116;2023-08-07T11:46:43;4.82;;;2.55;;
11203;SDS011;5659;49.408;11.116;2023-08-07T11:49:09;3.20;;;2.30;;
11203;SDS011;5659;49.408;11.116;2023-08-07T11:51:36;4.50;;;2.45;;
11203;SDS011;5659;49.408;11.116;2023-08-07T11:54:02;3.67;;;2.22;;
11203;SDS011;5659;49.408;11.116;2023-08-07T11:56:28;4.72;;;2.28;;
11203;SDS011;5659;49.408;11.116;2023-08-07T11:58:54;4.68;;;2.25;;
11203;SDS011;5659;49.408;11.116;2023-08-07T12:01:21;4.32;;;1.88;;
11203;SDS011;5659;49.408;11.116;2023-08-07T12:06:16;5.00;;;2.20;;
11203;SDS011;5659;49.408;11.116;2023-08-07T12:08:42;3.75;;;1.98;;
11203;SDS011;5659;49.408;11.116;2023-08-07T12:11:09;4.97;;;2.20;;
11203;SDS011;5659;49.408;11.116;2023-08-07T12:13:39;3.08;;;2.22;;
11203;SDS011;5659;49.408;11.116;2023-08-07T12:16:05;3.85;;;2.30;;
11203;SDS011;5659;49.408;11.116;2023-08-07T12:18:32;5.75;;;2.08;;
11203;SDS011;5659;49.408;11.116;2023-08-07T12:21:00;5.95;;;2.60;;
11203;SDS011;5659;49.408;11.116;2023-08-07T12:23:26;3.47;;;1.75;;
11203;SDS011;5659;49.408;11.116;2023-08-07T12:25:58;3.55;;;2.00;;
11203;SDS011;5659;49.408;11.116;2023-08-07T12:28:25;4.18;;;2.10;;
11203;SDS011;5659;49.408;11.116;2023-08-07T12:30:51;3.60;;;2.13;;
11203;SDS011;5659;49.408;11.116;2023-08-07T12:33:18;4.50;;;2.20;;
11203;SDS011;5659;49.408;11.116;2023-08-07T12:35:44;4.80;;;2.13;;
11203;SDS011;5659;49.408;11.116;2023-08-07T12:38:10;4.78;;;2.10;;
11203;SDS011;5659;49.408;11.116;2023-08-07T12:40:38;3.90;;;2.30;;
11203;SDS011;5659;49.408;11.116;2023-08-07T12:43:05;7.07;;;2.25;;
11203;SDS011;5659;49.408;11.116;2023-08-07T12:45:31;2.38;;;1.88;;
11203;SDS011;5659;49.408;11.116;2023-08-07T12:47:57;3.38;;;1.80;;
11203;SDS011;5659;49.408;11.116;2023-08-07T12:50:23;4.20;;;2.08;;
11203;SDS011;5659;49.408;11.116;2023-08-07T12:52:50;4.57;;;2.47;;
11203;SDS011;5659;49.408;11.116;2023-08-07T12:55:16;3.92;;;2.13;;
11203;SDS011;5659;49.408;11.116;2023-08-07T12:57:42;2.45;;;2.15;;
11203;SDS011;5659;49.408;11.116;2023-08-07T13:00:11;3.55;;;2.35;;
11203;SDS011;5659;49.408;11.116;2023-08-07T13:02:43;2.75;;;2.17;;
11203;SDS011;5659;49.408;11.116;2023-08-07T13:05:10;3.65;;;2.20;;
11203;SDS011;5659;49.408;11.116;2023-08-07T13:07:37;5.80;;;2.22;;
11203;SDS011;5659;49.408;11.116;2023-08-07T13:10:06;4.55;;;2.15;;
11203;SDS011;5659;49.408;11.116;2023-08-07T13:12:36;8.95;;;2.83;;
11203;SDS011;5659;49.408;11.116;2023-08-07T13:15:06;4.95;;;2.40;;
11203;SDS011;5659;49.408;11.116;2023-08-07T13:17:33;3.75;;;2.47;;
11203;SDS011;5659;49.408;11.116;2023-08-07T13:19:59;5.60;;;2.75;;
11203;SDS011;5659;49.408;11.116;2023-08-07T13:22:25;4.20;;;2.00;;
11203;SDS011;5659;49.408;11.116;2023-08-07T13:24:52;3.63;;;2.42;;
11203;SDS011;5659;49.408;11.116;2023-08-07T13:27:18;3.70;;;2.30;;
11203;SDS011;5659;49.408;11.116;2023-08-07T13:29:44;4.38;;;2.70;;
11203;SDS011;5659;49.408;11.116;2023-08-07T13:32:10;5.13;;;2.80;;
11203;SDS011;5659;49.408;11.116;2023-08-07T13:34:36;5.63;;;2.80;;
11203;SDS011;5659;49.408;11.116;2023-08-07T13:37:02;2.67;;;2.20;;
11203;SDS011;5659;49.408;11.116;2023-08-07T13:39:28;2.67;;;2.17;;
11203;SDS011;5659;49.408;11.116;2023-08-07T13:41:54;4.05;;;2.10;;
11203;SDS011;5659;49.408;11.116;2023-08-07T13:44:21;3.25;;;2.20;;
11203;SDS011;5659;49.408;11.116;2023-08-07T13:46:47;7.47;;;2.50;;
11203;SDS011;5659;49.408;11.116;2023-08-07T13:49:13;4.95;;;2.17;;
11203;SDS011;5659;49.408;11.116;2023-08-07T13:51:42;2.17;;;1.98;;
11203;SDS011;5659;49.408;11.116;2023-08-07T13:54:09;2.65;;;1.95;;
11203;SDS011;5659;49.408;11.116;2023-08-07T13:56:35;3.67;;;2.15;;
11203;SDS011;5659;49.408;11.116;2023-08-07T13:59:00;3.05;;;1.73;;
11203;SDS011;5659;49.408;11.116;2023-08-07T14:01:27;2.70;;;1.90;;
11203;SDS011;5659;49.408;11.116;2023-08-07T14:03:53;3.80;;;1.92;;
11203;SDS011;5659;49.408;11.116;2023-08-07T14:06:20;4.53;;;1.83;;
11203;SDS011;5659;49.408;11.116;2023-08-07T14:08:46;3.75;;;1.92;;
11203;SDS011;5659;49.408;11.116;2023-08-07T14:11:12;3.75;;;1.80;;
11203;SDS011;5659;49.408;11.116;2023-08-07T14:13:40;2.63;;;2.17;;
11203;SDS011;5659;49.408;11.116;2023-08-07T14:16:06;4.38;;;2.05;;
11203;SDS011;5659;49.408;11.116;2023-08-07T14:18:32;5.22;;;2.30;;
11203;SDS011;5659;49.408;11.116;2023-08-07T14:20:58;3.45;;;2.10;;
11203;SDS011;5659;49.408;11.116;2023-08-07T14:23:24;4.28;;;2.17;;
11203;SDS011;5659;49.408;11.116;2023-08-07T14:25:49;5.72;;;2.60;;
11203;SDS011;5659;49.408;11.116;2023-08-07T14:28:17;4.40;;;2.28;;
11203;SDS011;5659;49.408;11.116;2023-08-07T14:30:43;2.72;;;2.20;;
11203;SDS011;5659;49.408;11.116;2023-08-07T14:33:09;4.43;;;2.28;;
11203;SDS011;5659;49.408;11.116;2023-08-07T14:35:35;3.50;;;2.40;;
11203;SDS011;5659;49.408;11.116;2023-08-07T14:38:01;3.25;;;1.95;;
11203;SDS011;5659;49.408;11.116;2023-08-07T14:40:27;4.78;;;2.30;;
11203;SDS011;5659;49.408;11.116;2023-08-07T14:42:54;3.58;;;2.28;;
11203;SDS011;5659;49.408;11.116;2023-08-07T14:45:20;6.20;;;2.50;;
11203;SDS011;5659;49.408;11.116;2023-08-07T14:47:47;5.35;;;2.25;;
11203;SDS011;5659;49.408;11.116;2023-08-07T14:50:13;6.95;;;2.30;;
11203;SDS011;5659;49.408;11.116;2023-08-07T14:52:41;4.55;;;2.40;;